sensor_id;sensor_type;location;lat;lon;timestamp;temperature;humidity
506;DHT22;551;48.524;9.056;2023-03-11T00:02:08;3.80;1.00
506;DHT22;551;48.524;9.056;2023-03-11T00:04:34;3.90;1.00
506;DHT22;551;48.524;9.056;2023-03-11T00:06:59;3.90;1.00
506;DHT22;551;48.524;9.056;2023-03-11T00:09:25;3.90;1.00
506;DHT22;551;48.524;9.056;2023-03-11T00:11:50;3.80;1.00
506;DHT22;551;48.524;9.056;2023-03-11T00:14:16;3.70;1.00
506;DHT22;551;48.524;9.056;2023-03-11T00:16:41;3.70;1.00
506;DHT22;551;48.524;9.056;2023-03-11T00:19:09;3.70;1.00
506;DHT22;551;48.524;9.056;2023-03-11T00:21:34;3.70;1.00
506;DHT22;551;48.524;9.056;2023-03-11T00:24:00;3.70;1.00
506;DHT22;551;48.524;9.056;2023-03-11T00:26:28;3.70;1.00
506;DHT22;551;48.524;9.056;2023-03-11T00:28:53;3.70;1.00
506;DHT22;551;48.524;9.056;2023-03-11T00:31:20;3.60;1.00
506;DHT22;551;48.524;9.056;2023-03-11T00:33:46;3.70;1.00
506;DHT22;551;48.524;9.056;2023-03-11T00:36:28;3.60;1.00
506;DHT22;551;48.524;9.056;2023-03-11T00:38:56;3.70;1.00
506;DHT22;551;48.524;9.056;2023-03-11T00:41:22;3.70;1.00
506;DHT22;551;48.524;9.056;2023-03-11T00:43:47;3.70;1.00
506;DHT22;551;48.524;9.056;2023-03-11T00:46:13;3.70;1.00
506;DHT22;551;48.524;9.056;2023-03-11T00:48:38;3.70;1.00
506;DHT22;551;48.524;9.056;2023-03-11T00:51:06;3.80;1.00
506;DHT22;551;48.524;9.056;2023-03-11T00:53:31;3.80;1.00
506;DHT22;551;48.524;9.056;2023-03-11T00:55:57;3.90;1.00
506;DHT22;551;48.524;9.056;2023-03-11T00:58:22;3.90;1.00
506;DHT22;551;48.524;9.056;2023-03-11T01:00:52;4.00;1.00
506;DHT22;551;48.524;9.056;2023-03-11T01:03:18;4.10;1.00
506;DHT22;551;48.524;9.056;2023-03-11T01:05:43;4.20;1.00
506;DHT22;551;48.524;9.056;2023-03-11T01:08:09;4.20;1.00
506;DHT22;551;48.524;9.056;2023-03-11T01:10:35;4.30;1.00
506;DHT22;551;48.524;9.056;2023-03-11T01:13:01;4.30;1.00
506;DHT22;551;48.524;9.056;2023-03-11T01:15:33;4.40;1.00
506;DHT22;551;48.524;9.056;2023-03-11T01:17:59;4.30;1.00
506;DHT22;551;48.524;9.056;2023-03-11T01:20:25;4.40;1.00
506;DHT22;551;48.524;9.056;2023-03-11T01:22:51;4.40;1.00
506;DHT22;551;48.524;9.056;2023-03-11T01:25:18;4.40;1.00
506;DHT22;551;48.524;9.056;2023-03-11T01:27:44;4.40;1.00
506;DHT22;551;48.524;9.056;2023-03-11T01:30:14;4.40;1.00
506;DHT22;551;48.524;9.056;2023-03-11T01:32:39;4.40;1.00
506;DHT22;551;48.524;9.056;2023-03-11T01:35:05;4.40;1.00
506;DHT22;551;48.524;9.056;2023-03-11T01:37:31;4.50;1.00
506;DHT22;551;48.524;9.056;2023-03-11T01:39:56;4.50;1.00
506;DHT22;551;48.524;9.056;2023-03-11T01:42:22;4.50;1.00
506;DHT22;551;48.524;9.056;2023-03-11T01:44:48;4.50;1.00
506;DHT22;551;48.524;9.056;2023-03-11T01:49:39;4.50;1.00
506;DHT22;551;48.524;9.056;2023-03-11T01:52:08;4.60;1.00
506;DHT22;551;48.524;9.056;2023-03-11T01:54:37;4.50;1.00
506;DHT22;551;48.524;9.056;2023-03-11T01:57:06;4.60;1.00
506;DHT22;551;48.524;9.056;2023-03-11T01:59:38;4.60;1.00
506;DHT22;551;48.524;9.056;2023-03-11T02:02:10;4.60;1.00
506;DHT22;551;48.524;9.056;2023-03-11T02:04:39;4.50;1.00
506;DHT22;551;48.524;9.056;2023-03-11T02:07:08;4.50;1.00
506;DHT22;551;48.524;9.056;2023-03-11T02:09:34;4.50;1.00
506;DHT22;551;48.524;9.056;2023-03-11T02:12:00;4.40;1.00
506;DHT22;551;48.524;9.056;2023-03-11T02:14:28;4.40;1.00
506;DHT22;551;48.524;9.056;2023-03-11T02:16:56;4.40;1.00
506;DHT22;551;48.524;9.056;2023-03-11T02:22:07;4.40;1.00
506;DHT22;551;48.524;9.056;2023-03-11T02:24:39;4.40;1.00
506;DHT22;551;48.524;9.056;2023-03-11T02:27:10;4.40;1.00
506;DHT22;551;48.524;9.056;2023-03-11T02:29:37;4.20;1.00
506;DHT22;551;48.524;9.056;2023-03-11T02:32:07;4.30;1.00
506;DHT22;551;48.524;9.056;2023-03-11T02:34:35;4.30;1.00
506;DHT22;551;48.524;9.056;2023-03-11T02:37:10;4.20;1.00
506;DHT22;551;48.524;9.056;2023-03-11T02:39:42;4.10;1.00
506;DHT22;551;48.524;9.056;2023-03-11T02:42:14;4.00;1.00
506;DHT22;551;48.524;9.056;2023-03-11T02:44:43;4.00;1.00
506;DHT22;551;48.524;9.056;2023-03-11T02:47:11;3.90;1.00
506;DHT22;551;48.524;9.056;2023-03-11T02:49:37;3.90;1.00
506;DHT22;551;48.524;9.056;2023-03-11T02:52:03;3.80;1.00
506;DHT22;551;48.524;9.056;2023-03-11T02:54:29;3.70;1.00
506;DHT22;551;48.524;9.056;2023-03-11T02:56:54;3.60;1.00
506;DHT22;551;48.524;9.056;2023-03-11T02:59:20;3.60;1.00
506;DHT22;551;48.524;9.056;2023-03-11T03:01:45;3.60;1.00
506;DHT22;551;48.524;9.056;2023-03-11T03:04:11;3.50;1.00
506;DHT22;551;48.524;9.056;2023-03-11T03:06:36;3.40;1.00
506;DHT22;551;48.524;9.056;2023-03-11T03:09:02;3.30;1.00
506;DHT22;551;48.524;9.056;2023-03-11T03:11:28;3.30;1.00
506;DHT22;551;48.524;9.056;2023-03-11T03:13:54;3.20;1.00
506;DHT22;551;48.524;9.056;2023-03-11T03:16:19;3.20;1.00
506;DHT22;551;48.524;9.056;2023-03-11T03:18:45;3.20;1.00
506;DHT22;551;48.524;9.056;2023-03-11T03:21:11;3.10;1.00
506;DHT22;551;48.524;9.056;2023-03-11T03:23:36;3.10;1.00
506;DHT22;551;48.524;9.056;2023-03-11T03:26:04;3.10;1.00
506;DHT22;551;48.524;9.056;2023-03-11T03:28:30;3.00;1.00
506;DHT22;551;48.524;9.056;2023-03-11T03:30:55;3.00;1.00
506;DHT22;551;48.524;9.056;2023-03-11T03:33:27;2.90;1.00
506;DHT22;551;48.524;9.056;2023-03-11T03:35:53;2.90;1.00
506;DHT22;551;48.524;9.056;2023-03-11T03:38:18;2.90;1.00
506;DHT22;551;48.524;9.056;2023-03-11T03:40:47;2.80;1.00
506;DHT22;551;48.524;9.056;2023-03-11T03:43:13;2.70;1.00
506;DHT22;551;48.524;9.056;2023-03-11T03:45:38;2.70;1.00
506;DHT22;551;48.524;9.056;2023-03-11T03:48:05;2.70;1.00
506;DHT22;551;48.524;9.056;2023-03-11T03:50:31;2.60;1.00
506;DHT22;551;48.524;9.056;2023-03-11T03:52:56;2.60;1.00
506;DHT22;551;48.524;9.056;2023-03-11T03:55:25;2.60;1.00
506;DHT22;551;48.524;9.056;2023-03-11T03:57:50;2.50;1.00
506;DHT22;551;48.524;9.056;2023-03-11T04:00:16;2.50;1.00
506;DHT22;551;48.524;9.056;2023-03-11T04:02:42;2.40;1.00
506;DHT22;551;48.524;9.056;2023-03-11T04:05:08;2.30;1.00
506;DHT22;551;48.524;9.056;2023-03-11T04:07:35;2.30;1.00
506;DHT22;551;48.524;9.056;2023-03-11T04:10:00;2.20;1.00
506;DHT22;551;48.524;9.056;2023-03-11T04:12:26;2.20;1.00
506;DHT22;551;48.524;9.056;2023-03-11T04:14:52;2.20;1.00
506;DHT22;551;48.524;9.056;2023-03-11T04:17:17;2.10;1.00
506;DHT22;551;48.524;9.056;2023-03-11T04:19:43;2.10;1.00
506;DHT22;551;48.524;9.056;2023-03-11T04:22:09;2.00;1.00
506;DHT22;551;48.524;9.056;2023-03-11T04:24:34;2.00;1.00
506;DHT22;551;48.524;9.056;2023-03-11T04:27:00;1.90;1.00
506;DHT22;551;48.524;9.056;2023-03-11T04:29:25;1.90;1.00
506;DHT22;551;48.524;9.056;2023-03-11T04:31:51;1.90;1.00
506;DHT22;551;48.524;9.056;2023-03-11T04:34:17;1.80;1.00
506;DHT22;551;48.524;9.056;2023-03-11T04:36:42;1.80;1.00
506;DHT22;551;48.524;9.056;2023-03-11T04:39:08;1.90;1.00
506;DHT22;551;48.524;9.056;2023-03-11T04:41:33;1.80;1.00
506;DHT22;551;48.524;9.056;2023-03-11T04:43:59;1.80;1.00
506;DHT22;551;48.524;9.056;2023-03-11T04:46:25;1.70;1.00
506;DHT22;551;48.524;9.056;2023-03-11T04:48:50;1.70;1.00
506;DHT22;551;48.524;9.056;2023-03-11T04:51:16;1.70;1.00
506;DHT22;551;48.524;9.056;2023-03-11T04:53:41;1.70;1.00
506;DHT22;551;48.524;9.056;2023-03-11T04:56:07;1.70;1.00
506;DHT22;551;48.524;9.056;2023-03-11T04:58:32;1.60;1.00
506;DHT22;551;48.524;9.056;2023-03-11T05:00:58;1.60;1.00
506;DHT22;551;48.524;9.056;2023-03-11T05:03:23;1.50;1.00
506;DHT22;551;48.524;9.056;2023-03-11T05:05:49;1.50;1.00
506;DHT22;551;48.524;9.056;2023-03-11T05:08:17;1.50;1.00
506;DHT22;551;48.524;9.056;2023-03-11T05:10:42;1.50;1.00
506;DHT22;551;48.524;9.056;2023-03-11T05:13:08;1.50;1.00
506;DHT22;551;48.524;9.056;2023-03-11T05:15:34;1.40;1.00
506;DHT22;551;48.524;9.056;2023-03-11T05:18:00;1.40;1.00
506;DHT22;551;48.524;9.056;2023-03-11T05:20:26;1.40;1.00
506;DHT22;551;48.524;9.056;2023-03-11T05:22:51;1.30;1.00
506;DHT22;551;48.524;9.056;2023-03-11T05:25:17;1.30;1.00
506;DHT22;551;48.524;9.056;2023-03-11T05:27:43;1.30;1.00
506;DHT22;551;48.524;9.056;2023-03-11T05:30:09;1.20;1.00
506;DHT22;551;48.524;9.056;2023-03-11T05:32:34;1.20;1.00
506;DHT22;551;48.524;9.056;2023-03-11T05:35:00;1.10;1.00
506;DHT22;551;48.524;9.056;2023-03-11T05:37:26;1.10;1.00
506;DHT22;551;48.524;9.056;2023-03-11T05:39:52;1.10;1.00
506;DHT22;551;48.524;9.056;2023-03-11T05:42:17;1.10;1.00
506;DHT22;551;48.524;9.056;2023-03-11T05:44:43;1.10;1.00
506;DHT22;551;48.524;9.056;2023-03-11T05:47:08;1.10;1.00
506;DHT22;551;48.524;9.056;2023-03-11T05:49:34;1.20;1.00
506;DHT22;551;48.524;9.056;2023-03-11T05:52:00;1.20;1.00
506;DHT22;551;48.524;9.056;2023-03-11T05:54:25;1.20;1.00
506;DHT22;551;48.524;9.056;2023-03-11T05:56:51;1.30;1.00
506;DHT22;551;48.524;9.056;2023-03-11T05:59:16;1.40;1.00
506;DHT22;551;48.524;9.056;2023-03-11T06:01:42;1.40;1.00
506;DHT22;551;48.524;9.056;2023-03-11T06:04:08;1.40;1.00
506;DHT22;551;48.524;9.056;2023-03-11T06:06:34;1.40;1.00
506;DHT22;551;48.524;9.056;2023-03-11T06:09:00;1.30;1.00
506;DHT22;551;48.524;9.056;2023-03-11T06:11:26;1.40;1.00
506;DHT22;551;48.524;9.056;2023-03-11T06:13:53;1.50;1.00
506;DHT22;551;48.524;9.056;2023-03-11T06:16:20;1.60;1.00
506;DHT22;551;48.524;9.056;2023-03-11T06:18:45;1.70;1.00
506;DHT22;551;48.524;9.056;2023-03-11T06:21:16;1.80;1.00
506;DHT22;551;48.524;9.056;2023-03-11T06:23:42;1.80;1.00
506;DHT22;551;48.524;9.056;2023-03-11T06:26:09;2.00;1.00
506;DHT22;551;48.524;9.056;2023-03-11T06:28:37;2.10;1.00
506;DHT22;551;48.524;9.056;2023-03-11T06:31:07;2.20;1.00
506;DHT22;551;48.524;9.056;2023-03-11T06:33:33;2.40;1.00
506;DHT22;551;48.524;9.056;2023-03-11T06:35:59;2.50;1.00
506;DHT22;551;48.524;9.056;2023-03-11T06:38:25;2.70;1.00
506;DHT22;551;48.524;9.056;2023-03-11T06:40:51;2.80;1.00
506;DHT22;551;48.524;9.056;2023-03-11T06:43:17;2.90;1.00
506;DHT22;551;48.524;9.056;2023-03-11T06:45:43;3.00;1.00
506;DHT22;551;48.524;9.056;2023-03-11T06:48:08;3.30;1.00
506;DHT22;551;48.524;9.056;2023-03-11T06:50:34;3.50;1.00
506;DHT22;551;48.524;9.056;2023-03-11T06:52:59;3.80;1.00
506;DHT22;551;48.524;9.056;2023-03-11T06:55:26;4.10;1.00
506;DHT22;551;48.524;9.056;2023-03-11T06:57:51;4.50;1.00
506;DHT22;551;48.524;9.056;2023-03-11T07:00:17;5.00;1.00
506;DHT22;551;48.524;9.056;2023-03-11T07:02:43;5.50;1.00
506;DHT22;551;48.524;9.056;2023-03-11T07:05:08;6.00;1.00
506;DHT22;551;48.524;9.056;2023-03-11T07:07:34;6.00;1.00
506;DHT22;551;48.524;9.056;2023-03-11T07:10:00;6.00;1.00
506;DHT22;551;48.524;9.056;2023-03-11T07:12:25;5.90;1.00
506;DHT22;551;48.524;9.056;2023-03-11T07:14:57;6.00;1.00
506;DHT22;551;48.524;9.056;2023-03-11T07:17:24;6.00;1.00
506;DHT22;551;48.524;9.056;2023-03-11T07:19:49;6.10;1.00
506;DHT22;551;48.524;9.056;2023-03-11T07:22:15;6.30;1.00
506;DHT22;551;48.524;9.056;2023-03-11T07:24:43;6.40;1.00
506;DHT22;551;48.524;9.056;2023-03-11T07:27:09;6.60;1.00
506;DHT22;551;48.524;9.056;2023-03-11T07:29:34;7.00;1.00
506;DHT22;551;48.524;9.056;2023-03-11T07:32:00;8.00;1.00
506;DHT22;551;48.524;9.056;2023-03-11T07:34:25;9.80;1.00
506;DHT22;551;48.524;9.056;2023-03-11T07:36:51;11.00;1.00
506;DHT22;551;48.524;9.056;2023-03-11T07:39:17;11.90;1.00
506;DHT22;551;48.524;9.056;2023-03-11T07:41:43;12.40;1.00
506;DHT22;551;48.524;9.056;2023-03-11T07:44:11;12.30;1.00
506;DHT22;551;48.524;9.056;2023-03-11T07:46:37;12.00;1.00
506;DHT22;551;48.524;9.056;2023-03-11T07:49:03;12.20;1.00
506;DHT22;551;48.524;9.056;2023-03-11T07:51:31;12.70;1.00
506;DHT22;551;48.524;9.056;2023-03-11T07:53:58;13.20;1.00
506;DHT22;551;48.524;9.056;2023-03-11T07:56:26;13.70;1.00
506;DHT22;551;48.524;9.056;2023-03-11T07:58:52;13.60;1.00
506;DHT22;551;48.524;9.056;2023-03-11T08:01:20;12.80;1.00
506;DHT22;551;48.524;9.056;2023-03-11T08:03:48;11.70;1.00
506;DHT22;551;48.524;9.056;2023-03-11T08:06:20;11.00;1.00
506;DHT22;551;48.524;9.056;2023-03-11T08:08:46;10.30;1.00
506;DHT22;551;48.524;9.056;2023-03-11T08:11:14;9.90;1.00
506;DHT22;551;48.524;9.056;2023-03-11T08:13:40;9.70;1.00
506;DHT22;551;48.524;9.056;2023-03-11T08:16:08;9.50;1.00
506;DHT22;551;48.524;9.056;2023-03-11T08:18:33;9.30;1.00
506;DHT22;551;48.524;9.056;2023-03-11T08:21:11;9.00;1.00
506;DHT22;551;48.524;9.056;2023-03-11T08:23:36;8.90;1.00
506;DHT22;551;48.524;9.056;2023-03-11T08:26:07;9.30;1.00
506;DHT22;551;48.524;9.056;2023-03-11T08:28:33;9.70;1.00
506;DHT22;551;48.524;9.056;2023-03-11T08:30:59;11.00;1.00
506;DHT22;551;48.524;9.056;2023-03-11T08:33:25;13.40;1.00
506;DHT22;551;48.524;9.056;2023-03-11T08:35:51;15.70;1.00
506;DHT22;551;48.524;9.056;2023-03-11T08:38:16;15.80;1.00
506;DHT22;551;48.524;9.056;2023-03-11T08:40:42;15.40;1.00
506;DHT22;551;48.524;9.056;2023-03-11T08:43:10;16.60;1.00
506;DHT22;551;48.524;9.056;2023-03-11T08:45:39;18.00;1.00
506;DHT22;551;48.524;9.056;2023-03-11T08:48:04;18.70;1.00
506;DHT22;551;48.524;9.056;2023-03-11T08:50:30;17.70;1.00
506;DHT22;551;48.524;9.056;2023-03-11T08:52:56;16.60;1.00
506;DHT22;551;48.524;9.056;2023-03-11T08:55:24;16.60;1.00
506;DHT22;551;48.524;9.056;2023-03-11T08:57:52;16.50;1.00
506;DHT22;551;48.524;9.056;2023-03-11T09:00:18;17.50;1.00
506;DHT22;551;48.524;9.056;2023-03-11T09:02:44;19.00;1.00
506;DHT22;551;48.524;9.056;2023-03-11T09:05:10;20.20;1.00
506;DHT22;551;48.524;9.056;2023-03-11T09:07:35;21.40;1.00
506;DHT22;551;48.524;9.056;2023-03-11T09:10:02;22.40;1.00
506;DHT22;551;48.524;9.056;2023-03-11T09:12:27;23.40;1.00
506;DHT22;551;48.524;9.056;2023-03-11T09:14:53;23.60;1.00
506;DHT22;551;48.524;9.056;2023-03-11T09:17:20;24.50;1.00
506;DHT22;551;48.524;9.056;2023-03-11T09:19:46;23.60;1.00
506;DHT22;551;48.524;9.056;2023-03-11T09:22:11;23.40;1.00
506;DHT22;551;48.524;9.056;2023-03-11T09:24:37;22.60;1.00
506;DHT22;551;48.524;9.056;2023-03-11T09:27:02;21.30;1.00
506;DHT22;551;48.524;9.056;2023-03-11T09:29:28;19.00;1.00
506;DHT22;551;48.524;9.056;2023-03-11T09:31:54;17.10;1.00
506;DHT22;551;48.524;9.056;2023-03-11T09:34:19;15.40;1.00
506;DHT22;551;48.524;9.056;2023-03-11T09:36:45;14.60;1.00
506;DHT22;551;48.524;9.056;2023-03-11T09:39:11;13.50;1.00
506;DHT22;551;48.524;9.056;2023-03-11T09:41:55;12.80;1.00
506;DHT22;551;48.524;9.056;2023-03-11T09:44:30;12.60;1.00
506;DHT22;551;48.524;9.056;2023-03-11T09:47:32;12.60;1.00
506;DHT22;551;48.524;9.056;2023-03-11T09:50:16;13.90;1.00
506;DHT22;551;48.524;9.056;2023-03-11T09:58:35;15.70;1.00
506;DHT22;551;48.524;9.056;2023-03-11T10:01:20;15.80;1.00
506;DHT22;551;48.524;9.056;2023-03-11T10:03:47;16.10;1.00
506;DHT22;551;48.524;9.056;2023-03-11T10:06:22;16.50;1.00
506;DHT22;551;48.524;9.056;2023-03-11T10:12:13;17.00;1.00
506;DHT22;551;48.524;9.056;2023-03-11T10:23:17;14.20;1.00
506;DHT22;551;48.524;9.056;2023-03-11T10:26:04;13.80;1.00
506;DHT22;551;48.524;9.056;2023-03-11T10:28:35;13.60;1.00
506;DHT22;551;48.524;9.056;2023-03-11T10:31:23;13.20;1.00
506;DHT22;551;48.524;9.056;2023-03-11T10:33:59;14.00;1.00
506;DHT22;551;48.524;9.056;2023-03-11T10:36:37;16.70;1.00
506;DHT22;551;48.524;9.056;2023-03-11T10:39:04;18.40;1.00
506;DHT22;551;48.524;9.056;2023-03-11T10:41:41;18.50;1.00
506;DHT22;551;48.524;9.056;2023-03-11T10:46:41;16.60;1.00
506;DHT22;551;48.524;9.056;2023-03-11T10:49:13;15.70;1.00
506;DHT22;551;48.524;9.056;2023-03-11T10:51:40;16.60;1.00
506;DHT22;551;48.524;9.056;2023-03-11T10:54:06;17.30;1.00
506;DHT22;551;48.524;9.056;2023-03-11T10:56:37;18.20;1.00
506;DHT22;551;48.524;9.056;2023-03-11T10:59:20;18.90;1.00
506;DHT22;551;48.524;9.056;2023-03-11T11:01:54;18.40;1.00
506;DHT22;551;48.524;9.056;2023-03-11T11:04:31;16.80;1.00
506;DHT22;551;48.524;9.056;2023-03-11T11:07:23;15.60;1.00
506;DHT22;551;48.524;9.056;2023-03-11T11:10:16;14.60;1.00
506;DHT22;551;48.524;9.056;2023-03-11T11:15:39;17.40;1.00
506;DHT22;551;48.524;9.056;2023-03-11T11:18:14;19.20;1.00
506;DHT22;551;48.524;9.056;2023-03-11T11:23:42;20.50;1.00
506;DHT22;551;48.524;9.056;2023-03-11T11:26:20;19.50;1.00
506;DHT22;551;48.524;9.056;2023-03-11T11:31:39;19.40;1.00
506;DHT22;551;48.524;9.056;2023-03-11T11:34:31;18.90;1.00
506;DHT22;551;48.524;9.056;2023-03-11T11:36:59;16.90;1.00
506;DHT22;551;48.524;9.056;2023-03-11T11:39:27;15.50;1.00
506;DHT22;551;48.524;9.056;2023-03-11T11:41:55;15.20;1.00
506;DHT22;551;48.524;9.056;2023-03-11T11:44:21;15.80;1.00
506;DHT22;551;48.524;9.056;2023-03-11T11:46:56;16.00;1.00
506;DHT22;551;48.524;9.056;2023-03-11T11:49:30;17.20;1.00
506;DHT22;551;48.524;9.056;2023-03-11T11:56:54;20.50;1.00
506;DHT22;551;48.524;9.056;2023-03-11T11:59:21;20.40;1.00
506;DHT22;551;48.524;9.056;2023-03-11T12:05:09;20.90;1.00
506;DHT22;551;48.524;9.056;2023-03-11T12:07:55;21.50;1.00
506;DHT22;551;48.524;9.056;2023-03-11T12:10:32;21.80;1.00
506;DHT22;551;48.524;9.056;2023-03-11T12:21:53;20.90;1.00
506;DHT22;551;48.524;9.056;2023-03-11T12:24:39;20.20;1.00
506;DHT22;551;48.524;9.056;2023-03-11T12:27:21;20.30;1.00
506;DHT22;551;48.524;9.056;2023-03-11T12:29:55;19.90;1.00
506;DHT22;551;48.524;9.056;2023-03-11T12:32:36;20.30;1.00
506;DHT22;551;48.524;9.056;2023-03-11T12:35:28;20.30;1.00
506;DHT22;551;48.524;9.056;2023-03-11T12:38:37;21.10;1.00
506;DHT22;551;48.524;9.056;2023-03-11T12:46:09;21.90;1.00
506;DHT22;551;48.524;9.056;2023-03-11T12:48:41;21.60;1.00
506;DHT22;551;48.524;9.056;2023-03-11T12:53:57;21.40;1.00
506;DHT22;551;48.524;9.056;2023-03-11T12:56:45;20.90;1.00
506;DHT22;551;48.524;9.056;2023-03-11T13:05:16;21.10;1.00
506;DHT22;551;48.524;9.056;2023-03-11T13:07:54;20.90;1.00
506;DHT22;551;48.524;9.056;2023-03-11T13:10:33;20.70;1.00
506;DHT22;551;48.524;9.056;2023-03-11T13:13:01;21.20;1.00
506;DHT22;551;48.524;9.056;2023-03-11T13:15:33;21.20;1.00
506;DHT22;551;48.524;9.056;2023-03-11T13:25:55;20.10;1.00
506;DHT22;551;48.524;9.056;2023-03-11T13:31:55;20.30;1.00
506;DHT22;551;48.524;9.056;2023-03-11T13:34:58;20.30;1.00
506;DHT22;551;48.524;9.056;2023-03-11T13:37:39;20.30;1.00
506;DHT22;551;48.524;9.056;2023-03-11T13:42:56;20.70;1.00
506;DHT22;551;48.524;9.056;2023-03-11T13:47:48;21.10;1.00
506;DHT22;551;48.524;9.056;2023-03-11T13:50:23;21.30;1.00
506;DHT22;551;48.524;9.056;2023-03-11T13:52:51;21.50;1.00
506;DHT22;551;48.524;9.056;2023-03-11T13:55:27;21.00;1.00
506;DHT22;551;48.524;9.056;2023-03-11T13:57:56;21.10;1.00
506;DHT22;551;48.524;9.056;2023-03-11T14:00:27;20.70;1.00
506;DHT22;551;48.524;9.056;2023-03-11T14:03:01;19.80;1.00
506;DHT22;551;48.524;9.056;2023-03-11T14:05:30;18.70;1.00
506;DHT22;551;48.524;9.056;2023-03-11T14:08:28;17.40;1.00
506;DHT22;551;48.524;9.056;2023-03-11T14:10:58;15.80;1.00
506;DHT22;551;48.524;9.056;2023-03-11T14:13:31;14.50;1.00
506;DHT22;551;48.524;9.056;2023-03-11T14:16:13;13.70;1.00
506;DHT22;551;48.524;9.056;2023-03-11T14:18:46;12.90;1.00
506;DHT22;551;48.524;9.056;2023-03-11T14:21:18;12.40;1.00
506;DHT22;551;48.524;9.056;2023-03-11T14:23:46;11.90;1.00
506;DHT22;551;48.524;9.056;2023-03-11T14:26:18;11.70;1.00
506;DHT22;551;48.524;9.056;2023-03-11T14:28:48;11.70;1.00
506;DHT22;551;48.524;9.056;2023-03-11T14:31:30;11.40;1.00
506;DHT22;551;48.524;9.056;2023-03-11T14:34:10;11.20;1.00
506;DHT22;551;48.524;9.056;2023-03-11T14:36:46;11.10;1.00
506;DHT22;551;48.524;9.056;2023-03-11T14:42:06;10.90;1.00
506;DHT22;551;48.524;9.056;2023-03-11T14:44:39;11.00;1.00
506;DHT22;551;48.524;9.056;2023-03-11T14:47:19;10.90;1.00
506;DHT22;551;48.524;9.056;2023-03-11T14:49:46;10.90;1.00
506;DHT22;551;48.524;9.056;2023-03-11T14:52:23;10.90;1.00
506;DHT22;551;48.524;9.056;2023-03-11T14:54:54;10.70;1.00
506;DHT22;551;48.524;9.056;2023-03-11T14:57:32;10.70;1.00
506;DHT22;551;48.524;9.056;2023-03-11T14:59:58;10.80;1.00
506;DHT22;551;48.524;9.056;2023-03-11T15:02:30;10.80;1.00
506;DHT22;551;48.524;9.056;2023-03-11T15:05:02;10.80;1.00
506;DHT22;551;48.524;9.056;2023-03-11T15:07:34;10.60;1.00
506;DHT22;551;48.524;9.056;2023-03-11T15:10:00;10.60;1.00
506;DHT22;551;48.524;9.056;2023-03-11T15:12:34;10.60;1.00
506;DHT22;551;48.524;9.056;2023-03-11T15:15:01;10.70;1.00
506;DHT22;551;48.524;9.056;2023-03-11T15:17:27;10.90;1.00
506;DHT22;551;48.524;9.056;2023-03-11T15:19:56;10.60;1.00
506;DHT22;551;48.524;9.056;2023-03-11T15:22:26;10.40;1.00
506;DHT22;551;48.524;9.056;2023-03-11T15:25:00;10.40;1.00
506;DHT22;551;48.524;9.056;2023-03-11T15:27:35;10.30;1.00
506;DHT22;551;48.524;9.056;2023-03-11T15:32:44;10.50;1.00
506;DHT22;551;48.524;9.056;2023-03-11T15:35:17;10.60;1.00
506;DHT22;551;48.524;9.056;2023-03-11T15:37:44;10.70;1.00
506;DHT22;551;48.524;9.056;2023-03-11T15:40:27;10.70;1.00
506;DHT22;551;48.524;9.056;2023-03-11T15:45:44;10.50;1.00
506;DHT22;551;48.524;9.056;2023-03-11T15:48:11;10.40;1.00
506;DHT22;551;48.524;9.056;2023-03-11T15:50:46;10.40;1.00
506;DHT22;551;48.524;9.056;2023-03-11T15:53:13;10.30;1.00
506;DHT22;551;48.524;9.056;2023-03-11T15:55:38;10.30;1.00
506;DHT22;551;48.524;9.056;2023-03-11T15:58:05;10.20;1.00
506;DHT22;551;48.524;9.056;2023-03-11T16:00:32;10.10;1.00
506;DHT22;551;48.524;9.056;2023-03-11T16:02:58;10.20;1.00
506;DHT22;551;48.524;9.056;2023-03-11T16:05:24;10.00;1.00
506;DHT22;551;48.524;9.056;2023-03-11T16:07:50;9.90;1.00
506;DHT22;551;48.524;9.056;2023-03-11T16:10:18;9.80;1.00
506;DHT22;551;48.524;9.056;2023-03-11T16:12:44;9.70;1.00
506;DHT22;551;48.524;9.056;2023-03-11T16:15:22;9.70;1.00
506;DHT22;551;48.524;9.056;2023-03-11T16:17:50;9.70;1.00
506;DHT22;551;48.524;9.056;2023-03-11T16:20:17;9.60;1.00
506;DHT22;551;48.524;9.056;2023-03-11T16:22:43;9.60;1.00
506;DHT22;551;48.524;9.056;2023-03-11T16:25:19;9.50;1.00
506;DHT22;551;48.524;9.056;2023-03-11T16:27:46;9.50;1.00
506;DHT22;551;48.524;9.056;2023-03-11T16:30:12;9.40;1.00
506;DHT22;551;48.524;9.056;2023-03-11T16:32:41;9.30;1.00
506;DHT22;551;48.524;9.056;2023-03-11T16:35:07;9.30;1.00
506;DHT22;551;48.524;9.056;2023-03-11T16:37:32;9.30;1.00
506;DHT22;551;48.524;9.056;2023-03-11T16:39:58;9.20;1.00
506;DHT22;551;48.524;9.056;2023-03-11T16:42:24;9.10;1.00
506;DHT22;551;48.524;9.056;2023-03-11T16:44:49;9.10;1.00
506;DHT22;551;48.524;9.056;2023-03-11T16:47:15;9.10;1.00
506;DHT22;551;48.524;9.056;2023-03-11T16:49:40;9.00;1.00
506;DHT22;551;48.524;9.056;2023-03-11T16:52:06;8.90;1.00
506;DHT22;551;48.524;9.056;2023-03-11T16:54:31;8.80;1.00
506;DHT22;551;48.524;9.056;2023-03-11T16:56:57;8.60;1.00
506;DHT22;551;48.524;9.056;2023-03-11T16:59:22;8.50;1.00
506;DHT22;551;48.524;9.056;2023-03-11T17:01:48;8.50;1.00
506;DHT22;551;48.524;9.056;2023-03-11T17:04:13;8.40;1.00
506;DHT22;551;48.524;9.056;2023-03-11T17:06:39;8.40;1.00
506;DHT22;551;48.524;9.056;2023-03-11T17:09:05;8.30;1.00
506;DHT22;551;48.524;9.056;2023-03-11T17:11:30;8.20;1.00
506;DHT22;551;48.524;9.056;2023-03-11T17:13:57;8.10;1.00
506;DHT22;551;48.524;9.056;2023-03-11T17:16:23;8.00;1.00
506;DHT22;551;48.524;9.056;2023-03-11T17:18:49;8.00;1.00
506;DHT22;551;48.524;9.056;2023-03-11T17:21:15;7.90;1.00
506;DHT22;551;48.524;9.056;2023-03-11T17:23:42;7.80;1.00
506;DHT22;551;48.524;9.056;2023-03-11T17:26:10;7.80;1.00
506;DHT22;551;48.524;9.056;2023-03-11T17:28:37;7.80;1.00
506;DHT22;551;48.524;9.056;2023-03-11T17:31:04;7.70;1.00
506;DHT22;551;48.524;9.056;2023-03-11T17:33:31;7.70;1.00
506;DHT22;551;48.524;9.056;2023-03-11T17:36:01;7.60;1.00
506;DHT22;551;48.524;9.056;2023-03-11T17:38:27;7.60;1.00
506;DHT22;551;48.524;9.056;2023-03-11T17:40:54;7.60;1.00
506;DHT22;551;48.524;9.056;2023-03-11T17:43:19;7.50;1.00
506;DHT22;551;48.524;9.056;2023-03-11T17:45:45;7.50;1.00
506;DHT22;551;48.524;9.056;2023-03-11T17:48:11;7.50;1.00
506;DHT22;551;48.524;9.056;2023-03-11T17:50:37;7.40;1.00
506;DHT22;551;48.524;9.056;2023-03-11T17:53:03;7.40;1.00
506;DHT22;551;48.524;9.056;2023-03-11T17:55:30;7.30;1.00
506;DHT22;551;48.524;9.056;2023-03-11T17:57:56;7.30;1.00
506;DHT22;551;48.524;9.056;2023-03-11T18:00:21;7.30;1.00
506;DHT22;551;48.524;9.056;2023-03-11T18:02:47;7.20;1.00
506;DHT22;551;48.524;9.056;2023-03-11T18:05:14;7.10;1.00
506;DHT22;551;48.524;9.056;2023-03-11T18:07:40;7.00;1.00
506;DHT22;551;48.524;9.056;2023-03-11T18:10:06;7.00;1.00
506;DHT22;551;48.524;9.056;2023-03-11T18:12:31;6.90;1.00
506;DHT22;551;48.524;9.056;2023-03-11T18:14:57;6.90;1.00
506;DHT22;551;48.524;9.056;2023-03-11T18:17:23;6.80;1.00
506;DHT22;551;48.524;9.056;2023-03-11T18:19:48;6.80;1.00
506;DHT22;551;48.524;9.056;2023-03-11T18:22:14;6.70;1.00
506;DHT22;551;48.524;9.056;2023-03-11T18:24:40;6.70;1.00
506;DHT22;551;48.524;9.056;2023-03-11T18:27:05;6.60;1.00
506;DHT22;551;48.524;9.056;2023-03-11T18:29:31;6.60;1.00
506;DHT22;551;48.524;9.056;2023-03-11T18:31:56;6.50;1.00
506;DHT22;551;48.524;9.056;2023-03-11T18:34:22;6.50;1.00
506;DHT22;551;48.524;9.056;2023-03-11T18:36:47;6.40;1.00
506;DHT22;551;48.524;9.056;2023-03-11T18:39:13;6.40;1.00
506;DHT22;551;48.524;9.056;2023-03-11T18:41:39;6.30;1.00
506;DHT22;551;48.524;9.056;2023-03-11T18:44:05;6.30;1.00